Terminal Aerodrome Forecast
Issued by NWS

Home | Current Version | Previous Version | Text Only | Print | Product List | Glossary Off
Versions: 1 2 3 4 5 6 7 8 9 10 11 12 13 14 15 16 17 18 19 20 21 22 23 24 25 26 27 28 29 30 31

000
FTUS45 KGGW 221300 AAA
TAFOLF
TAF AMD
KOLF 221322Z 2213/2312 30015KT 1 1/2SM -SN SCT010 OVC025
     FM221600 31018KT 3SM -SN OVC025
     FM222200 32015KT P6SM VCSH OVC035
     FM230000 32011KT P6SM OVC029=

USA.gov is the U.S. government's official web portal to all federal, state and local government web resources and services.